createdAt,value
2023-01-25T00:00:48.386Z,100405.66
2023-01-25T00:06:23.383Z,100396.94
2023-01-25T00:11:48.365Z,100394.19
2023-01-25T00:17:13.416Z,100394.31
2023-01-25T00:22:41.365Z,100404.97
2023-01-25T00:28:05.377Z,100396.13
2023-01-25T00:33:48.364Z,100394.31
2023-01-25T00:39:15.359Z,100388.06
2023-01-25T00:44:40.371Z,100380.13
2023-01-25T00:50:04.420Z,100382.81
2023-01-25T00:55:33.387Z,100389.91
2023-01-25T01:00:57.466Z,100399.66
2023-01-25T01:06:43.454Z,100390.06
2023-01-25T01:12:59.415Z,100396.38
2023-01-25T01:19:25.400Z,100383.09
2023-01-25T01:25:09.758Z,100392.75
2023-01-25T01:30:36.403Z,100386.50
2023-01-25T01:36:01.486Z,100385.75
2023-01-25T01:41:29.559Z,100387.59
2023-01-25T01:46:58.505Z,100395.59
2023-01-25T01:52:29.430Z,100377.06
2023-01-25T01:57:59.412Z,100369.25
2023-01-25T02:03:26.399Z,100354.22
2023-01-25T02:08:51.468Z,100363.78
2023-01-25T02:14:20.552Z,100360.34
2023-01-25T02:19:55.451Z,100356.75
2023-01-25T02:25:30.409Z,100345.44
2023-01-25T02:30:56.441Z,100325.13
2023-01-25T02:36:34.364Z,100319.81
2023-01-25T02:42:02.381Z,100311.75
2023-01-25T02:47:27.395Z,100300.25
2023-01-25T02:52:53.410Z,100301.91
2023-01-25T02:58:20.391Z,100293.97
2023-01-25T03:03:45.408Z,100293.91
2023-01-25T03:09:19.387Z,100292.03
2023-01-25T03:14:47.423Z,100286.75
2023-01-25T03:20:12.524Z,100279.69
2023-01-25T03:25:44.418Z,100284.09
2023-01-25T03:31:13.541Z,100276.16
2023-01-25T03:36:39.411Z,100277.06
2023-01-25T03:42:04.439Z,100262.03
2023-01-25T03:47:32.459Z,100261.16
2023-01-25T03:53:05.423Z,100245.28
2023-01-25T03:58:31.411Z,100235.53
2023-01-25T04:03:59.446Z,100235.53
2023-01-25T04:09:25.616Z,100229.41
2023-01-25T04:14:51.421Z,100218.91
2023-01-25T04:20:20.412Z,100219.78
2023-01-25T04:25:53.483Z,100223.34
2023-01-25T04:31:18.637Z,100217.97
2023-01-25T04:36:45.446Z,100211.09
2023-01-25T04:42:10.427Z,100219.84
2023-01-25T04:47:38.433Z,100221.59
2023-01-25T04:53:06.415Z,100211.00
2023-01-25T04:58:31.451Z,100209.19
2023-01-25T05:03:56.459Z,100208.31
2023-01-25T05:09:35.511Z,100196.03
2023-01-25T05:15:00.441Z,100181.06
2023-01-25T05:20:27.515Z,100177.59
2023-01-25T05:26:08.534Z,100192.50
2023-01-25T05:31:33.497Z,100181.16
2023-01-25T05:36:59.479Z,100173.25
2023-01-25T05:42:30.454Z,100174.13
2023-01-25T05:48:02.456Z,100182.88
2023-01-25T05:53:27.525Z,100187.34
2023-01-25T05:58:55.447Z,100176.06
2023-01-25T06:04:20.464Z,100161.91
2023-01-25T06:09:45.480Z,100161.84
2023-01-25T06:15:12.487Z,100159.97
2023-01-25T06:20:37.503Z,100161.72
2023-01-25T06:26:12.493Z,100164.28
2023-01-25T06:31:40.695Z,100178.34
2023-01-25T06:37:05.461Z,100170.47
2023-01-25T06:42:30.494Z,100165.19
2023-01-25T06:47:58.467Z,100172.16
2023-01-25T06:53:23.495Z,100172.22
2023-01-25T06:58:48.523Z,100166.03
2023-01-25T07:04:19.631Z,100167.00
2023-01-25T07:09:43.495Z,100156.41
2023-01-25T07:15:08.727Z,100156.47
2023-01-25T07:20:35.614Z,100158.16
2023-01-25T07:26:07.501Z,100144.00
2023-01-25T07:31:32.601Z,100147.47
2023-01-25T07:36:59.605Z,100138.50
2023-01-25T07:42:25.488Z,100139.44
2023-01-25T07:48:04.508Z,100134.09
2023-01-25T07:53:32.573Z,100134.94
2023-01-25T07:58:56.517Z,100123.59
2023-01-25T08:04:28.519Z,100121.03
2023-01-25T08:09:56.537Z,100107.88
2023-01-25T08:15:22.568Z,100113.91
2023-01-25T08:20:54.803Z,100104.16
2023-01-25T08:26:24.950Z,100097.88
2023-01-25T08:31:51.625Z,100087.13
2023-01-25T08:37:16.520Z,100081.75
2023-01-25T08:42:43.585Z,100084.25
2023-01-25T08:48:08.738Z,100077.22
2023-01-25T08:53:32.591Z,100069.28
2023-01-25T08:59:01.521Z,100066.63
2023-01-25T09:04:25.564Z,100052.69
2023-01-25T09:09:51.582Z,100031.47
2023-01-25T09:15:20.529Z,100031.31
2023-01-25T09:20:48.685Z,100025.06
2023-01-25T09:26:14.546Z,100018.88
2023-01-25T09:31:42.647Z,100014.41
2023-01-25T09:37:20.674Z,100018.03
2023-01-25T09:43:08.657Z,100013.81
2023-01-25T09:48:51.811Z,100002.25
2023-01-25T09:54:20.810Z,99996.78
2023-01-25T09:59:47.879Z,99989.91
2023-01-25T10:05:29.647Z,99995.81
2023-01-25T10:10:56.713Z,99982.41
2023-01-25T10:16:31.231Z,99978.16
2023-01-25T10:22:07.070Z,99978.00
2023-01-25T10:27:46.135Z,99965.50
2023-01-25T10:33:17.770Z,99955.19
2023-01-25T10:38:49.560Z,99927.13
2023-01-25T10:44:27.697Z,99921.63
2023-01-25T10:49:58.889Z,99913.78
2023-01-25T10:55:29.563Z,99896.06
2023-01-25T11:00:56.827Z,99889.91
2023-01-25T11:06:29.700Z,99882.84
2023-01-25T11:12:03.605Z,99877.66
2023-01-25T11:17:39.861Z,99865.31
2023-01-25T11:23:06.612Z,99859.44
2023-01-25T11:28:37.877Z,99861.75
2023-01-25T11:34:02.601Z,99848.13
2023-01-25T11:39:41.620Z,99834.47
2023-01-25T11:45:33.588Z,99823.88
2023-01-25T11:51:02.648Z,99815.94
2023-01-25T11:56:41.607Z,99793.66
2023-01-25T12:02:21.611Z,99793.66
2023-01-25T12:08:03.589Z,99783.31
2023-01-25T12:13:37.623Z,99773.81
2023-01-25T12:19:26.610Z,99764.19
2023-01-25T12:25:01.626Z,99744.59
2023-01-25T12:30:36.650Z,99727.00
2023-01-25T12:36:12.614Z,99736.44
2023-01-25T12:41:46.613Z,99733.47
2023-01-25T12:47:19.614Z,99719.25
2023-01-25T12:52:49.658Z,99717.56
2023-01-25T12:58:37.124Z,99693.88
2023-01-25T13:04:15.641Z,99693.88
2023-01-25T13:09:52.763Z,99688.19
2023-01-25T13:15:17.596Z,99681.28
2023-01-25T13:20:59.709Z,99666.81
2023-01-25T13:27:15.940Z,99669.28
2023-01-25T13:33:13.613Z,99646.06
2023-01-25T13:38:51.640Z,99634.81
2023-01-25T13:44:34.949Z,99621.03
2023-01-25T13:50:13.892Z,99623.47
2023-01-25T13:55:39.660Z,99614.66
2023-01-25T14:01:13.030Z,99600.78
2023-01-25T14:06:47.639Z,99595.31
2023-01-25T14:12:18.757Z,99590.41
2023-01-25T14:17:46.685Z,99581.41
2023-01-25T14:23:12.647Z,99578.66
2023-01-25T14:28:37.666Z,99568.19
2023-01-25T14:34:09.699Z,99564.66
2023-01-25T14:39:45.683Z,99551.69
2023-01-25T14:45:10.654Z,99542.63
2023-01-25T14:50:49.753Z,99550.38
2023-01-25T14:56:14.748Z,99541.56
2023-01-25T15:01:44.932Z,99533.56
2023-01-25T15:07:27.723Z,99528.25
2023-01-25T15:13:14.259Z,99510.72
2023-01-25T15:19:07.926Z,99508.88
2023-01-25T15:30:02.869Z,99496.91
2023-01-25T15:35:35.868Z,99485.72
2023-01-25T15:41:07.059Z,99476.09
2023-01-25T15:46:40.769Z,99472.09
2023-01-25T15:52:11.158Z,99472.03
2023-01-25T15:57:48.724Z,99464.81
2023-01-25T16:03:17.741Z,99463.97
2023-01-25T16:08:43.797Z,99472.84
2023-01-25T16:14:21.887Z,99472.75
2023-01-25T16:19:52.924Z,99465.81
2023-01-25T16:25:19.037Z,99465.94
2023-01-25T16:30:42.750Z,99459.84
2023-01-25T16:48:01.882Z,99441.53
2023-01-25T16:53:59.973Z,99443.56
2023-01-25T16:59:40.728Z,99432.34
2023-01-25T17:05:05.808Z,99431.25
2023-01-25T17:10:39.772Z,99432.84
2023-01-25T17:16:07.775Z,99432.91
2023-01-25T17:21:59.457Z,99420.44
2023-01-25T17:27:27.772Z,99415.91
2023-01-25T17:32:51.748Z,99416.84
2023-01-25T17:43:52.921Z,99402.34
2023-01-25T17:54:42.775Z,99396.34
2023-01-25T18:05:47.848Z,99389.13
2023-01-25T18:11:16.793Z,99376.75
2023-01-25T18:17:00.647Z,99375.81
2023-01-25T18:22:36.020Z,99365.31
2023-01-25T18:28:12.750Z,99354.91
2023-01-25T18:33:39.844Z,99355.84
2023-01-25T18:39:13.807Z,99350.47
2023-01-25T18:44:42.883Z,99323.16
2023-01-25T18:50:12.888Z,99325.91
2023-01-25T18:55:37.822Z,99314.31
2023-01-25T19:01:23.276Z,99303.22
2023-01-25T19:12:10.793Z,99293.00
2023-01-25T19:17:38.786Z,99291.28
2023-01-25T19:23:02.816Z,99304.59
2023-01-25T19:28:27.903Z,99307.56
2023-01-25T19:33:54.795Z,99300.63
2023-01-25T19:39:24.677Z,99289.38
2023-01-25T19:44:49.819Z,99275.38
2023-01-25T19:50:20.791Z,99264.72
2023-01-25T19:55:47.877Z,99262.88
2023-01-25T20:01:17.911Z,99256.00
2023-01-25T20:06:44.814Z,99249.78
2023-01-25T20:12:14.822Z,99243.84
2023-01-25T20:17:46.261Z,99237.56
2023-01-25T20:23:14.960Z,99229.16
2023-01-25T20:28:38.790Z,99221.44
2023-01-25T20:34:05.823Z,99206.41
2023-01-25T20:39:35.837Z,99202.81
2023-01-25T20:45:00.816Z,99186.88
2023-01-25T20:50:28.071Z,99178.94
2023-01-25T20:56:04.819Z,99181.44
2023-01-25T21:01:30.968Z,99173.56
2023-01-25T21:06:56.881Z,99166.50
2023-01-25T21:12:24.852Z,99160.16
2023-01-25T21:17:50.824Z,99169.88
2023-01-25T21:23:24.235Z,99176.88
2023-01-25T21:34:18.864Z,99183.69
2023-01-25T21:39:46.990Z,99175.03
2023-01-25T21:45:23.874Z,99172.47
2023-01-25T21:51:04.828Z,99174.22
2023-01-25T21:56:30.883Z,99158.56
2023-01-25T22:01:59.828Z,99151.69
2023-01-25T22:07:28.843Z,99146.56
2023-01-25T22:12:56.812Z,99150.13
2023-01-25T22:18:21.900Z,99138.69
2023-01-25T22:23:52.928Z,99145.50
2023-01-25T22:29:16.873Z,99135.91
2023-01-25T22:34:43.160Z,99126.13
2023-01-25T22:40:11.264Z,99130.56
2023-01-25T22:45:35.867Z,99114.97
2023-01-25T22:51:01.866Z,99106.97
2023-01-25T22:56:31.095Z,99099.91
2023-01-25T23:01:54.879Z,99091.97
2023-01-25T23:07:25.863Z,99082.56
2023-01-25T23:12:54.883Z,99068.41
2023-01-25T23:18:34.506Z,99062.34
2023-01-25T23:24:06.963Z,99058.75
2023-01-25T23:29:35.903Z,99054.41
2023-01-25T23:35:01.911Z,99046.31
2023-01-25T23:40:26.931Z,99043.81
2023-01-25T23:45:54.874Z,99044.81
2023-01-25T23:51:22.236Z,99038.66
2023-01-25T23:56:46.889Z,99041.09
